Time;durP1;ratioP1;P1;durP2;ratioP2;P2;SDS_P1;SDS_P2;PMS_P1;PMS_P2;Temp;Humidity;BMP_temperature;BMP_pressure;BME280_temperature;BME280_humidity;BME280_pressure;Samples;Min_cycle;Max_cycle;Signal;HPM_P1;HPM_P2
2021/07/23 00:01:49;;;;;;;16.00;12.97;;;16.80;99.90;;;;;;5091057;28;20435;-66
2021/07/23 00:04:16;;;;;;;15.70;13.47;;;16.70;99.90;;;;;;5091057;28;20472;-67
2021/07/23 00:06:42;;;;;;;17.67;15.83;;;16.60;99.90;;;;;;5091096;28;20434;-67
2021/07/23 00:09:09;;;;;;;17.80;14.70;;;16.60;99.90;;;;;;5093215;28;20438;-66
2021/07/23 00:11:36;;;;;;;18.70;15.50;;;16.60;99.90;;;;;;5095600;28;20485;-67
2021/07/23 00:14:03;;;;;;;16.00;13.97;;;16.60;99.90;;;;;;5095091;28;20466;-66
2021/07/23 00:16:31;;;;;;;15.37;12.27;;;16.60;99.90;;;;;;5095000;28;20444;-66
2021/07/23 00:18:58;;;;;;;14.63;13.13;;;16.60;99.90;;;;;;5094701;28;20446;-65
2021/07/23 00:21:25;;;;;;;15.07;12.80;;;16.50;99.90;;;;;;5094706;28;20529;-66
2021/07/23 00:23:52;;;;;;;17.57;14.70;;;16.50;99.90;;;;;;5094806;28;20454;-66
2021/07/23 00:26:21;;;;;;;18.87;15.30;;;16.50;99.90;;;;;;5095576;28;20444;-67
2021/07/23 00:28:48;;;;;;;18.10;15.37;;;16.50;99.90;;;;;;5094836;28;20446;-67
2021/07/23 00:31:15;;;;;;;17.30;13.40;;;16.40;99.90;;;;;;5094403;28;20556;-66
2021/07/23 00:33:43;;;;;;;15.03;13.43;;;16.40;99.90;;;;;;5094685;28;20469;-66
2021/07/23 00:36:10;;;;;;;16.03;14.33;;;16.20;99.90;;;;;;5094496;28;20526;-66
2021/07/23 00:38:37;;;;;;;15.87;13.63;;;16.20;99.90;;;;;;5094787;28;20441;-68
2021/07/23 00:41:04;;;;;;;15.53;12.93;;;16.10;99.90;;;;;;5094362;28;20516;-66
2021/07/23 00:43:31;;;;;;;15.17;13.23;;;16.10;99.90;;;;;;5094588;28;20436;-66
2021/07/23 00:45:58;;;;;;;14.87;13.03;;;16.00;99.90;;;;;;5094541;28;20438;-66
2021/07/23 00:48:26;;;;;;;16.33;13.33;;;16.00;99.90;;;;;;5094630;28;20440;-67
2021/07/23 00:50:55;;;;;;;17.63;14.50;;;16.00;99.90;;;;;;5094092;28;20450;-67
2021/07/23 00:53:22;;;;;;;15.27;13.30;;;15.90;99.90;;;;;;5094963;28;20436;-66
2021/07/23 00:55:53;;;;;;;14.80;12.97;;;16.00;99.90;;;;;;5094749;28;20526;-66
2021/07/23 00:58:20;;;;;;;18.20;13.10;;;16.00;99.90;;;;;;5095231;28;20425;-69
2021/07/23 01:00:47;;;;;;;16.40;13.90;;;15.90;99.90;;;;;;5095136;28;20445;-66
2021/07/23 01:03:15;;;;;;;15.20;12.40;;;15.90;99.90;;;;;;5095193;28;20520;-65
2021/07/23 01:05:42;;;;;;;15.37;13.77;;;15.90;99.90;;;;;;5095466;28;20528;-67
2021/07/23 01:08:10;;;;;;;15.20;12.10;;;15.80;99.90;;;;;;5094954;28;20514;-67
2021/07/23 01:10:38;;;;;;;16.30;13.53;;;15.80;99.90;;;;;;5094597;28;20852;-66
2021/07/23 01:13:06;;;;;;;16.60;13.10;;;15.80;99.90;;;;;;5095199;28;20816;-67
2021/07/23 01:15:33;;;;;;;14.63;11.53;;;15.80;99.90;;;;;;5094806;28;20454;-66
2021/07/23 01:17:59;;;;;;;17.20;13.27;;;15.70;99.90;;;;;;5095167;28;20511;-65
2021/07/23 01:20:28;;;;;;;14.47;12.90;;;15.70;99.90;;;;;;5094450;28;20939;-66
2021/07/23 01:22:55;;;;;;;16.40;13.50;;;15.70;99.90;;;;;;5094927;28;20913;-66
2021/07/23 01:25:24;;;;;;;17.90;12.37;;;15.70;99.90;;;;;;5095084;28;20653;-66
2021/07/23 01:27:54;;;;;;;13.90;12.40;;;15.70;99.90;;;;;;5094809;28;20466;-66
2021/07/23 01:30:23;;;;;;;13.70;12.10;;;15.80;99.90;;;;;;5094006;28;20437;-67
2021/07/23 01:32:50;;;;;;;15.37;13.33;;;15.80;99.90;;;;;;5094848;28;20510;-66
2021/07/23 01:35:17;;;;;;;14.70;13.00;;;15.80;99.90;;;;;;5095112;28;20458;-66
2021/07/23 01:37:46;;;;;;;18.00;13.87;;;15.80;99.90;;;;;;5094724;28;20438;-66
2021/07/23 01:40:14;;;;;;;14.73;13.10;;;15.70;99.90;;;;;;5093414;28;20438;-67
2021/07/23 01:42:44;;;;;;;16.03;14.33;;;15.70;99.90;;;;;;5093208;28;20434;-66
2021/07/23 01:45:12;;;;;;;15.40;13.13;;;15.60;99.90;;;;;;5093291;28;20553;-67
2021/07/23 01:47:39;;;;;;;15.40;13.77;;;15.50;99.90;;;;;;5093072;28;20438;-68
2021/07/23 01:50:07;;;;;;;17.53;14.73;;;15.50;99.90;;;;;;5092596;28;20868;-67
2021/07/23 01:52:34;;;;;;;16.63;12.50;;;15.40;99.90;;;;;;5092793;28;21059;-66
2021/07/23 01:55:01;;;;;;;16.83;13.23;;;15.40;99.90;;;;;;5092951;28;20469;-67
2021/07/23 01:57:28;;;;;;;25.57;15.07;;;15.50;99.90;;;;;;5092700;28;20517;-66
2021/07/23 01:59:56;;;;;;;18.60;15.97;;;15.50;99.90;;;;;;5092803;28;20513;-67
2021/07/23 02:02:23;;;;;;;17.47;14.30;;;15.50;99.90;;;;;;5092716;28;20434;-67
2021/07/23 02:04:50;;;;;;;16.47;14.77;;;15.60;99.90;;;;;;5092646;28;20582;-66
2021/07/23 02:07:17;;;;;;;16.80;14.83;;;15.50;99.90;;;;;;5092981;28;20462;-66
2021/07/23 02:09:44;;;;;;;15.83;14.13;;;15.50;99.90;;;;;;5092145;28;20444;-66
2021/07/23 02:12:11;;;;;;;18.37;14.97;;;15.40;99.90;;;;;;5092618;28;20470;-67
2021/07/23 02:14:37;;;;;;;15.57;12.77;;;15.40;99.90;;;;;;5092880;28;20496;-67
2021/07/23 02:17:06;;;;;;;18.37;14.50;;;15.40;99.90;;;;;;5092492;28;20438;-67
2021/07/23 02:19:33;;;;;;;15.93;13.50;;;15.40;99.90;;;;;;5092175;28;20529;-67
2021/07/23 02:22:00;;;;;;;16.47;13.53;;;15.30;99.90;;;;;;5092877;28;20513;-67
2021/07/23 02:24:27;;;;;;;16.43;14.60;;;15.30;99.90;;;;;;5092341;28;20549;-67
2021/07/23 02:26:54;;;;;;;17.20;14.00;;;15.30;99.90;;;;;;5092594;28;20446;-66
2021/07/23 02:29:21;;;;;;;16.20;13.33;;;15.30;99.90;;;;;;5092294;28;20438;-67
2021/07/23 02:31:47;;;;;;;14.37;12.63;;;15.30;99.90;;;;;;5091930;28;20482;-66
2021/07/23 02:34:16;;;;;;;16.93;15.10;;;15.30;99.90;;;;;;5092023;28;20472;-67
2021/07/23 02:36:43;;;;;;;18.33;14.23;;;15.30;99.90;;;;;;5092143;28;20462;-67
2021/07/23 02:39:10;;;;;;;17.90;15.33;;;15.30;99.90;;;;;;5091667;28;20525;-67
2021/07/23 02:41:37;;;;;;;17.87;15.97;;;15.30;99.90;;;;;;5092322;28;20465;-68
2021/07/23 02:44:04;;;;;;;19.23;17.07;;;15.30;99.90;;;;;;5091837;28;21039;-67
2021/07/23 02:46:31;;;;;;;15.53;13.57;;;15.40;99.90;;;;;;5092585;28;20438;-66
2021/07/23 02:48:58;;;;;;;18.13;13.80;;;15.40;99.90;;;;;;5091552;28;20480;-66
2021/07/23 02:51:26;;;;;;;18.40;15.63;;;15.40;99.90;;;;;;5092010;28;20449;-67
2021/07/23 02:53:53;;;;;;;17.57;15.77;;;15.40;99.90;;;;;;5091431;28;20489;-67
2021/07/23 02:56:19;;;;;;;18.90;16.30;;;15.30;99.90;;;;;;5091981;28;20438;-68
2021/07/23 02:58:47;;;;;;;22.23;18.57;;;15.30;99.90;;;;;;5091829;28;20960;-66
2021/07/23 03:01:14;;;;;;;21.43;17.17;;;15.20;99.90;;;;;;5091413;28;20438;-67
2021/07/23 03:03:40;;;;;;;18.87;16.53;;;15.20;99.90;;;;;;5091381;28;20458;-67
2021/07/23 03:06:07;;;;;;;18.63;15.67;;;15.20;99.90;;;;;;5091707;28;20495;-67
2021/07/23 03:08:36;;;;;;;18.70;16.57;;;15.20;99.90;;;;;;5091381;28;20444;-67
2021/07/23 03:11:04;;;;;;;20.70;17.73;;;15.20;99.90;;;;;;5091117;28;20978;-67
2021/07/23 03:13:31;;;;;;;21.63;17.53;;;15.20;99.90;;;;;;5091265;28;20565;-67
2021/07/23 03:15:58;;;;;;;19.77;17.60;;;15.30;99.90;;;;;;5091517;28;20820;-67
2021/07/23 03:18:25;;;;;;;23.33;18.53;;;15.20;99.90;;;;;;5091246;28;20453;-67
2021/07/23 03:20:51;;;;;;;22.83;19.00;;;15.20;99.90;;;;;;5091065;28;20533;-65
2021/07/23 03:23:18;;;;;;;22.07;19.50;;;15.20;99.90;;;;;;5091173;28;20987;-67
2021/07/23 03:25:46;;;;;;;21.57;17.53;;;15.20;99.90;;;;;;5091292;28;20434;-68
2021/07/23 03:28:14;;;;;;;23.03;18.33;;;15.20;99.90;;;;;;5091073;28;20521;-68
2021/07/23 03:30:40;;;;;;;23.50;18.57;;;15.10;99.90;;;;;;5090721;28;20533;-67
2021/07/23 03:33:07;;;;;;;22.33;19.10;;;15.10;99.90;;;;;;5090816;28;20483;-65
2021/07/23 03:35:34;;;;;;;20.93;18.73;;;15.20;99.90;;;;;;5090821;28;20477;-67
2021/07/23 03:38:01;;;;;;;19.17;17.13;;;15.20;99.90;;;;;;5091158;28;20826;-66
2021/07/23 03:40:28;;;;;;;22.33;16.50;;;15.20;99.90;;;;;;5090948;28;20445;-66
2021/07/23 03:42:56;;;;;;;18.67;16.17;;;15.10;99.90;;;;;;5090872;28;20456;-66
2021/07/23 03:45:23;;;;;;;21.73;16.43;;;15.10;99.90;;;;;;5091511;28;21026;-67
2021/07/23 03:47:49;;;;;;;24.10;17.13;;;15.10;99.90;;;;;;5091159;28;20444;-66
2021/07/23 03:50:16;;;;;;;21.00;17.97;;;15.10;99.90;;;;;;5090737;28;20528;-68
2021/07/23 03:52:43;;;;;;;19.87;15.63;;;15.00;99.90;;;;;;5090993;28;20480;-67
2021/07/23 03:55:12;;;;;;;17.40;15.50;;;15.00;99.90;;;;;;5090890;28;20991;-66
2021/07/23 03:57:39;;;;;;;19.07;17.10;;;14.90;99.90;;;;;;5091468;28;20434;-67
2021/07/23 04:00:09;;;;;;;19.50;17.40;;;14.80;99.90;;;;;;5090767;28;20446;-67
2021/07/23 04:02:36;;;;;;;25.87;19.50;;;14.80;99.90;;;;;;5090731;28;20438;-66
2021/07/23 04:05:03;;;;;;;20.10;16.60;;;14.70;99.90;;;;;;5091518;28;20464;-67
2021/07/23 04:07:31;;;;;;;20.70;17.07;;;14.80;99.90;;;;;;5091535;28;21000;-66
2021/07/23 04:09:58;;;;;;;20.73;16.70;;;14.80;99.90;;;;;;5091062;28;20434;-66
2021/07/23 04:12:25;;;;;;;23.80;17.70;;;14.70;99.90;;;;;;5090379;28;21041;-66
2021/07/23 04:14:52;;;;;;;22.73;18.60;;;14.70;99.90;;;;;;5089656;28;20640;-65
2021/07/23 04:17:20;;;;;;;19.80;17.00;;;14.80;99.90;;;;;;5090330;28;20936;-65
2021/07/23 04:19:46;;;;;;;22.67;16.27;;;14.80;99.90;;;;;;5089802;28;20454;-65
2021/07/23 04:22:13;;;;;;;23.33;16.50;;;14.80;99.90;;;;;;5089938;28;20438;-66
2021/07/23 04:24:40;;;;;;;23.53;20.60;;;14.70;99.90;;;;;;5089915;28;20893;-65
2021/07/23 04:27:07;;;;;;;23.70;18.50;;;14.70;99.90;;;;;;5089973;28;20920;-66
2021/07/23 04:29:34;;;;;;;22.60;18.03;;;14.80;99.90;;;;;;5089734;28;20436;-66
2021/07/23 04:32:01;;;;;;;21.50;18.63;;;14.80;99.90;;;;;;5090557;28;20448;-67
2021/07/23 04:34:29;;;;;;;21.97;19.50;;;14.90;99.90;;;;;;5090266;28;20486;-67
2021/07/23 04:36:58;;;;;;;20.60;17.40;;;14.90;99.90;;;;;;5090201;28;20431;-66
2021/07/23 04:39:26;;;;;;;18.10;16.20;;;15.00;99.90;;;;;;5088863;28;20441;-66
2021/07/23 04:41:52;;;;;;;18.90;15.97;;;15.00;99.90;;;;;;5089728;28;20444;-67
2021/07/23 04:44:19;;;;;;;18.63;16.60;;;15.00;99.90;;;;;;5090082;28;20792;-66
2021/07/23 04:46:46;;;;;;;23.07;16.87;;;15.10;99.90;;;;;;5091189;28;20449;-67
2021/07/23 04:49:13;;;;;;;21.57;16.87;;;15.10;99.90;;;;;;5091225;28;20927;-67
2021/07/23 04:51:41;;;;;;;19.10;17.03;;;15.20;99.90;;;;;;5091682;28;20517;-67
2021/07/23 04:54:08;;;;;;;22.37;17.67;;;15.30;99.90;;;;;;5092525;28;20478;-67
2021/07/23 04:56:35;;;;;;;24.70;19.50;;;15.40;99.90;;;;;;5096001;28;20441;-67
2021/07/23 04:59:02;;;;;;;22.10;19.20;;;15.40;99.90;;;;;;5095281;28;20518;-66
2021/07/23 05:01:29;;;;;;;20.13;17.30;;;15.60;99.90;;;;;;5096068;28;20892;-64
2021/07/23 05:03:56;;;;;;;21.20;17.27;;;15.50;99.90;;;;;;5095712;28;20522;-67
2021/07/23 05:06:23;;;;;;;22.53;18.07;;;15.60;99.90;;;;;;5096121;28;20442;-65
2021/07/23 05:08:51;;;;;;;19.47;17.40;;;15.60;99.90;;;;;;5095281;28;20445;-65
2021/07/23 05:11:18;;;;;;;23.13;17.43;;;15.70;99.90;;;;;;5095547;28;20446;-67
2021/07/23 05:13:46;;;;;;;19.43;17.43;;;15.70;99.90;;;;;;5095688;28;20496;-67
2021/07/23 05:16:13;;;;;;;19.70;16.63;;;15.80;99.90;;;;;;5093367;28;20442;-66
2021/07/23 05:18:41;;;;;;;19.80;17.70;;;15.90;99.90;;;;;;5093227;28;20997;-67
2021/07/23 05:21:11;;;;;;;20.33;16.20;;;16.10;99.90;;;;;;5090731;28;20438;-65
2021/07/23 05:23:40;;;;;;;19.03;16.40;;;16.20;99.90;;;;;;5091037;28;20462;-68
2021/07/23 05:26:09;;;;;;;19.57;17.47;;;16.30;99.90;;;;;;5092184;28;20441;-66
2021/07/23 05:28:36;;;;;;;25.13;19.93;;;16.40;99.90;;;;;;5092175;28;20442;-66
2021/07/23 05:31:02;;;;;;;19.97;17.60;;;16.60;99.90;;;;;;5092123;28;20440;-67
2021/07/23 05:33:29;;;;;;;18.50;16.50;;;16.70;99.90;;;;;;5093114;28;20473;-67
2021/07/23 05:35:56;;;;;;;24.90;16.67;;;16.90;99.90;;;;;;5092714;28;20449;-66
2021/07/23 05:38:23;;;;;;;19.20;16.73;;;17.10;99.90;;;;;;5086893;28;20486;-65
2021/07/23 05:40:51;;;;;;;18.77;16.80;;;17.30;99.90;;;;;;5082592;28;20522;-66
2021/07/23 05:43:19;;;;;;;22.10;17.77;;;17.30;99.90;;;;;;5083118;28;20418;-66
2021/07/23 05:45:46;;;;;;;22.87;18.00;;;17.50;99.90;;;;;;5091512;28;20491;-66
2021/07/23 05:48:13;;;;;;;19.30;17.27;;;17.50;99.90;;;;;;5091184;28;20511;-66
2021/07/23 05:50:39;;;;;;;21.43;17.07;;;17.70;99.90;;;;;;5090267;28;20438;-67
2021/07/23 05:53:06;;;;;;;19.53;16.83;;;17.80;99.90;;;;;;5091440;28;20478;-66
2021/07/23 05:55:33;;;;;;;21.43;17.23;;;17.90;99.90;;;;;;5091752;28;20465;-65
2021/07/23 05:58:00;;;;;;;19.50;17.40;;;17.90;99.90;;;;;;5091183;28;20450;-67
2021/07/23 06:00:28;;;;;;;18.27;16.10;;;17.90;99.90;;;;;;5091025;28;20545;-66
2021/07/23 06:02:55;;;;;;;19.13;17.27;;;18.00;99.90;;;;;;5091102;28;20440;-66
2021/07/23 06:05:22;;;;;;;19.13;17.00;;;18.00;99.90;;;;;;5090672;28;20466;-67
2021/07/23 06:07:49;;;;;;;18.37;16.40;;;18.00;99.90;;;;;;5090720;28;20442;-66
2021/07/23 06:10:16;;;;;;;19.23;16.47;;;18.10;99.90;;;;;;5090566;28;20916;-65
2021/07/23 06:12:42;;;;;;;18.83;16.80;;;18.20;99.90;;;;;;5091033;28;20431;-66
2021/07/23 06:15:10;;;;;;;19.60;16.97;;;18.20;99.90;;;;;;5091039;28;20466;-67
2021/07/23 06:17:38;;;;;;;23.70;15.80;;;18.30;99.90;;;;;;5091840;28;20446;-68
2021/07/23 06:20:06;;;;;;;20.07;16.70;;;18.30;99.90;;;;;;5091547;28;20912;-67
2021/07/23 06:22:33;;;;;;;20.40;17.50;;;18.40;99.90;;;;;;5092028;28;20440;-68
2021/07/23 06:25:00;;;;;;;16.23;14.30;;;18.50;99.90;;;;;;5091936;28;20461;-67
2021/07/23 06:27:26;;;;;;;17.77;14.00;;;18.50;99.90;;;;;;5091822;28;20978;-67
2021/07/23 06:29:55;;;;;;;19.87;15.00;;;18.60;99.90;;;;;;5091299;28;20467;-67
2021/07/23 06:32:26;;;;;;;18.20;15.73;;;18.70;99.90;;;;;;5091695;28;20504;-67
2021/07/23 06:34:55;;;;;;;16.60;14.63;;;18.70;99.90;;;;;;5091321;28;20492;-68
2021/07/23 06:37:22;;;;;;;16.40;14.43;;;18.80;99.90;;;;;;5091306;28;20999;-68
2021/07/23 06:39:49;;;;;;;17.93;14.50;;;18.90;99.90;;;;;;5091135;28;20924;-67
2021/07/23 06:42:17;;;;;;;18.33;15.40;;;19.00;99.90;;;;;;5091267;28;20811;-66
2021/07/23 06:44:44;;;;;;;19.73;16.70;;;19.00;99.90;;;;;;5091597;28;20458;-68
2021/07/23 06:47:11;;;;;;;16.10;14.50;;;19.00;99.90;;;;;;5091388;28;20444;-67
2021/07/23 06:49:38;;;;;;;16.93;15.13;;;19.10;99.90;;;;;;5090855;28;20438;-66
2021/07/23 06:52:07;;;;;;;16.03;14.13;;;19.10;99.90;;;;;;5091054;28;20434;-67
2021/07/23 06:54:34;;;;;;;16.63;14.83;;;19.30;99.90;;;;;;5090954;28;20484;-68
2021/07/23 06:57:04;;;;;;;17.77;14.70;;;19.40;99.90;;;;;;5090925;28;20666;-66
2021/07/23 06:59:31;;;;;;;17.40;13.93;;;19.50;99.90;;;;;;5090844;28;20589;-67
2021/07/23 07:01:59;;;;;;;17.10;13.97;;;19.60;99.90;;;;;;5091019;28;20464;-67
2021/07/23 07:04:25;;;;;;;20.17;14.03;;;19.70;99.90;;;;;;5090916;28;20468;-67
2021/07/23 07:06:54;;;;;;;14.87;13.10;;;19.80;99.90;;;;;;5090674;28;20461;-66
2021/07/23 07:09:23;;;;;;;16.23;13.30;;;19.90;99.90;;;;;;5090352;28;20468;-66
2021/07/23 07:11:50;;;;;;;17.00;14.83;;;19.80;99.90;;;;;;5090534;28;20441;-66
2021/07/23 07:14:17;;;;;;;15.73;13.63;;;19.90;99.90;;;;;;5090655;28;20914;-66
2021/07/23 07:16:44;;;;;;;16.27;14.27;;;20.10;99.90;;;;;;5090514;28;20526;-68
2021/07/23 07:19:11;;;;;;;14.10;12.60;;;20.10;99.90;;;;;;5090168;28;20546;-67
2021/07/23 07:21:38;;;;;;;15.17;13.23;;;20.20;99.90;;;;;;5090431;28;20434;-66
2021/07/23 07:24:05;;;;;;;16.17;13.23;;;20.30;99.90;;;;;;5090341;28;20541;-66
2021/07/23 07:26:33;;;;;;;15.57;13.57;;;20.50;99.90;;;;;;5090642;28;20488;-66
2021/07/23 07:29:00;;;;;;;15.10;13.60;;;20.60;99.90;;;;;;5090249;28;21015;-67
2021/07/23 07:31:27;;;;;;;16.20;12.87;;;20.70;99.90;;;;;;5090561;28;20441;-67
2021/07/23 07:33:54;;;;;;;16.43;13.50;;;20.80;99.90;;;;;;5090340;28;20938;-67
2021/07/23 07:36:20;;;;;;;20.40;13.53;;;20.90;99.90;;;;;;5090371;28;20430;-67
2021/07/23 07:38:48;;;;;;;15.00;13.10;;;20.90;99.90;;;;;;5090255;28;20813;-67
2021/07/23 07:41:17;;;;;;;16.00;12.50;;;20.90;99.90;;;;;;5089973;28;20924;-67
2021/07/23 07:43:45;;;;;;;17.23;13.30;;;21.00;99.90;;;;;;5090304;28;20542;-66
2021/07/23 07:46:12;;;;;;;15.10;12.90;;;21.20;99.90;;;;;;5081312;22;20496;-68
2021/07/23 07:48:39;;;;;;;15.43;13.20;;;21.30;99.90;;;;;;5041612;28;20448;-68
2021/07/23 07:51:07;;;;;;;16.80;14.30;;;21.50;99.90;;;;;;5049227;28;21015;-66
2021/07/23 07:53:33;;;;;;;18.83;15.27;;;21.60;99.90;;;;;;5049749;28;20996;-66
2021/07/23 07:56:00;;;;;;;18.40;13.47;;;21.60;99.90;;;;;;5049915;28;20492;-68
2021/07/23 07:58:27;;;;;;;14.97;13.40;;;21.70;99.90;;;;;;5050010;28;20488;-68
2021/07/23 08:00:56;;;;;;;16.50;12.77;;;21.70;99.90;;;;;;5049636;28;20536;-67
2021/07/23 08:03:23;;;;;;;17.30;14.03;;;21.80;99.90;;;;;;5050170;28;20869;-68
2021/07/23 08:05:53;;;;;;;16.37;13.13;;;21.90;99.90;;;;;;5050013;28;20480;-68
2021/07/23 08:08:21;;;;;;;16.07;14.20;;;22.00;99.90;;;;;;5050049;28;20440;-67
2021/07/23 08:10:48;;;;;;;16.53;13.97;;;22.10;99.90;;;;;;5049984;28;20543;-67
2021/07/23 08:13:15;;;;;;;16.20;14.57;;;22.20;99.90;;;;;;5050426;28;20456;-66
2021/07/23 08:15:44;;;;;;;16.30;14.53;;;22.30;99.90;;;;;;5049934;28;20465;-67
2021/07/23 08:18:13;;;;;;;16.30;14.03;;;22.30;99.90;;;;;;5049869;28;20456;-67
2021/07/23 08:20:41;;;;;;;17.27;15.57;;;22.40;99.90;;;;;;5049519;28;20451;-67
2021/07/23 08:23:09;;;;;;;15.90;14.30;;;22.40;99.90;;;;;;5049898;28;20486;-67
2021/07/23 08:25:36;;;;;;;18.90;14.40;;;22.50;99.90;;;;;;5050094;28;20847;-67
2021/07/23 08:28:03;;;;;;;16.13;14.53;;;22.60;99.90;;;;;;5049950;28;20456;-67
2021/07/23 08:30:29;;;;;;;14.50;13.00;;;22.70;99.90;;;;;;5052667;28;20861;-68
2021/07/23 08:32:56;;;;;;;14.83;13.03;;;22.90;99.90;;;;;;5054298;28;20465;-67
2021/07/23 08:35:25;;;;;;;14.17;12.30;;;22.90;99.90;;;;;;5053457;28;20935;-67
2021/07/23 08:37:52;;;;;;;15.20;13.23;;;23.00;99.90;;;;;;5053687;28;20884;-68
2021/07/23 08:40:19;;;;;;;17.60;12.63;;;23.20;99.90;;;;;;5053374;28;20554;-68
2021/07/23 08:42:47;;;;;;;15.27;12.70;;;23.40;99.90;;;;;;5053588;28;20455;-68
2021/07/23 08:45:14;;;;;;;13.60;12.20;;;23.60;99.90;;;;;;5053294;28;20500;-67
2021/07/23 08:47:41;;;;;;;15.27;13.67;;;23.70;99.90;;;;;;5053573;28;20459;-67
2021/07/23 08:50:09;;;;;;;15.93;14.23;;;23.80;99.90;;;;;;5053076;28;20458;-68
2021/07/23 08:52:42;;;;;;;18.50;13.47;;;23.80;99.90;;;;;;5053604;28;21003;-67
2021/07/23 08:55:11;;;;;;;16.03;12.87;;;24.00;99.90;;;;;;5053188;28;20497;-68
2021/07/23 08:57:38;;;;;;;18.40;13.17;;;24.10;99.90;;;;;;5053018;28;20451;-67
2021/07/23 09:00:10;;;;;;;18.40;14.67;;;24.00;99.90;;;;;;5052894;28;20451;-68
2021/07/23 09:02:54;;;;;;;14.00;12.60;;;24.00;99.90;;;;;;5052721;28;20484;-68
2021/07/23 09:05:23;;;;;;;14.97;13.00;;;24.30;99.90;;;;;;5052845;28;20467;-68
2021/07/23 09:07:51;;;;;;;14.67;13.13;;;24.40;99.90;;;;;;5053116;28;20747;-68
2021/07/23 09:10:23;;;;;;;13.23;11.83;;;24.30;99.90;;;;;;5053144;28;20536;-68
2021/07/23 09:12:52;;;;;;;14.73;12.87;;;24.40;99.90;;;;;;5052939;28;20529;-68
2021/07/23 09:15:24;;;;;;;17.77;12.97;;;24.40;99.90;;;;;;5052564;28;21180;-68
2021/07/23 09:17:52;;;;;;;14.87;11.63;;;24.50;99.90;;;;;;5052757;28;20514;-67
2021/07/23 09:20:30;;;;;;;14.33;12.20;;;24.70;99.90;;;;;;5052366;28;20490;-68
2021/07/23 09:23:00;;;;;;;15.13;12.50;;;24.90;99.90;;;;;;5052776;28;20517;-66
2021/07/23 09:25:39;;;;;;;13.37;11.80;;;24.90;99.90;;;;;;5052597;28;20890;-68
2021/07/23 09:28:23;;;;;;;13.23;11.87;;;25.00;99.90;;;;;;5052929;28;20451;-68
2021/07/23 09:30:51;;;;;;;14.00;12.60;;;25.10;99.90;;;;;;5053039;28;20890;-67
2021/07/23 09:33:25;;;;;;;14.37;12.87;;;25.20;99.90;;;;;;5053152;28;20878;-67
2021/07/23 09:35:54;;;;;;;15.53;12.53;;;25.10;99.90;;;;;;5052572;28;20574;-67
2021/07/23 09:38:24;;;;;;;13.00;11.20;;;25.30;99.90;;;;;;5052556;28;20436;-68
2021/07/23 09:40:53;;;;;;;13.07;11.87;;;25.30;99.90;;;;;;5051893;28;21027;-67
2021/07/23 09:43:31;;;;;;;13.27;11.90;;;25.50;99.90;;;;;;5052225;28;20536;-67
2021/07/23 09:46:27;;;;;;;13.23;11.37;;;25.40;99.90;;;;;;5051858;28;20533;-67
2021/07/23 09:48:55;;;;;;;13.33;11.73;;;25.50;99.90;;;;;;5052174;28;20571;-67
2021/07/23 09:51:24;;;;;;;13.73;12.30;;;25.70;99.90;;;;;;5052156;28;20518;-67
2021/07/23 09:53:53;;;;;;;14.20;11.90;;;25.90;99.90;;;;;;5052565;28;20558;-67
2021/07/23 09:56:23;;;;;;;12.83;11.63;;;25.90;99.90;;;;;;5052052;28;20555;-68
2021/07/23 09:58:56;;;;;;;14.10;12.67;;;26.20;99.90;;;;;;5052203;28;20452;-68
2021/07/23 10:01:28;;;;;;;13.17;11.30;;;26.60;99.90;;;;;;5052627;28;20498;-68
2021/07/23 10:03:58;;;;;;;12.73;11.47;;;27.10;99.90;;;;;;5052151;28;20463;-67
2021/07/23 10:06:30;;;;;;;11.37;10.17;;;27.80;99.90;;;;;;5051764;28;20962;-67
2021/07/23 10:09:05;;;;;;;12.43;11.13;;;28.20;99.50;;;;;;5051884;28;20479;-67
2021/07/23 10:11:32;;;;;;;12.30;11.20;;;28.50;98.50;;;;;;5031873;28;20437;-66
2021/07/23 10:14:02;;;;;;;13.23;11.50;;;28.90;96.40;;;;;;5031260;28;20440;-68
2021/07/23 10:16:32;;;;;;;11.90;10.70;;;29.20;96.10;;;;;;5030240;28;20455;-68
2021/07/23 10:19:01;;;;;;;13.60;10.00;;;29.40;95.30;;;;;;5031049;28;20437;-67
2021/07/23 10:21:28;;;;;;;12.93;11.67;;;29.90;94.40;;;;;;5030028;28;20476;-67
2021/07/23 10:23:55;;;;;;;12.20;10.30;;;29.70;95.20;;;;;;5031085;28;20433;-67
2021/07/23 10:26:28;;;;;;;14.10;11.23;;;29.70;93.00;;;;;;5030781;28;20463;-67
2021/07/23 10:28:58;;;;;;;11.90;10.70;;;29.40;93.00;;;;;;5028620;28;20505;-69
2021/07/23 10:31:44;;;;;;;12.17;10.90;;;29.30;94.30;;;;;;5030780;28;20473;-68
2021/07/23 10:34:11;;;;;;;10.60;9.60;;;29.80;92.30;;;;;;5028230;28;20444;-67
2021/07/23 10:36:42;;;;;;;10.90;9.90;;;30.00;92.40;;;;;;5030824;28;20463;-68
2021/07/23 10:39:13;;;;;;;11.27;10.13;;;30.20;92.40;;;;;;5030765;28;20440;-67
2021/07/23 10:41:53;;;;;;;11.67;10.57;;;30.10;92.10;;;;;;5030773;28;20453;-67
2021/07/23 10:44:53;;;;;;;14.20;10.50;;;30.00;91.50;;;;;;5030827;28;20440;-68
2021/07/23 10:47:38;;;;;;;11.47;10.00;;;30.00;91.90;;;;;;5030633;28;20987;-68
2021/07/23 10:50:07;;;;;;;10.87;9.77;;;30.20;91.60;;;;;;5016995;28;20428;-66
2021/07/23 10:52:37;;;;;;;11.83;10.27;;;30.20;91.40;;;;;;5030198;28;20505;-68
2021/07/23 10:55:21;;;;;;;11.60;10.50;;;29.90;90.80;;;;;;5030643;28;20844;-68
2021/07/23 10:58:25;;;;;;;11.63;9.67;;;30.10;91.80;;;;;;5014611;28;20528;-67
2021/07/23 11:00:58;;;;;;;10.50;9.57;;;30.50;91.10;;;;;;5030433;28;20443;-69
2021/07/23 11:03:58;;;;;;;11.30;10.20;;;31.10;92.10;;;;;;5030668;28;20507;-68
2021/07/23 11:06:38;;;;;;;11.20;10.13;;;31.90;89.70;;;;;;5030503;28;20465;-68
2021/07/23 11:09:07;;;;;;;11.73;10.47;;;32.00;87.90;;;;;;5029213;28;20932;-69
2021/07/23 11:11:34;;;;;;;12.03;10.97;;;32.40;87.40;;;;;;5029347;28;20441;-68
2021/07/23 11:14:18;;;;;;;10.90;9.97;;;32.50;85.30;;;;;;5030310;28;20440;-68
2021/07/23 11:16:46;;;;;;;11.20;10.20;;;32.70;80.40;;;;;;5030186;28;20463;-68
2021/07/23 11:19:22;;;;;;;12.50;9.50;;;33.20;79.70;;;;;;5030018;28;20473;-69
2021/07/23 11:21:50;;;;;;;11.07;10.07;;;33.00;78.80;;;;;;5030273;28;20847;-67
2021/07/23 11:24:17;;;;;;;11.63;10.53;;;33.30;79.70;;;;;;5030223;28;20953;-68
2021/07/23 11:26:53;;;;;;;11.10;10.20;;;33.50;77.80;;;;;;5030138;28;20490;-67
2021/07/23 11:29:34;;;;;;;11.60;10.50;;;33.50;77.20;;;;;;5029728;28;20531;-67
2021/07/23 11:32:08;;;;;;;11.00;10.00;;;33.30;78.90;;;;;;5029738;28;20449;-67
2021/07/23 11:34:38;;;;;;;12.53;11.33;;;33.00;79.40;;;;;;5029214;28;20453;-67
2021/07/23 11:37:16;;;;;;;11.30;10.10;;;32.30;77.60;;;;;;5029643;28;20653;-69
2021/07/23 11:39:54;;;;;;;12.07;10.80;;;31.70;82.40;;;;;;5029566;28;20499;-69
2021/07/23 11:42:21;;;;;;;10.20;9.10;;;32.30;79.60;;;;;;5027409;28;20512;-68
2021/07/23 11:44:55;;;;;;;11.87;10.60;;;32.50;77.70;;;;;;5028742;28;20443;-68
2021/07/23 11:47:32;;;;;;;10.80;9.83;;;32.50;78.70;;;;;;5027297;28;20962;-69
2021/07/23 11:50:01;;;;;;;11.67;10.57;;;33.20;78.60;;;;;;5022660;28;20492;-69
2021/07/23 11:52:28;;;;;;;10.40;9.40;;;33.50;81.80;;;;;;5026396;28;20507;-69
2021/07/23 11:55:03;;;;;;;13.37;9.57;;;33.80;80.20;;;;;;5025390;28;20483;-69
2021/07/23 11:57:31;;;;;;;9.73;8.83;;;34.30;81.00;;;;;;5026443;28;20440;-69
2021/07/23 11:59:59;;;;;;;11.37;10.20;;;34.90;77.20;;;;;;5027842;28;20507;-67
2021/07/23 12:02:27;;;;;;;10.97;9.90;;;34.90;73.20;;;;;;5027499;28;20451;-68
2021/07/23 12:05:09;;;;;;;10.40;9.50;;;35.00;70.50;;;;;;5025977;28;20877;-67
2021/07/23 12:07:37;;;;;;;10.83;9.73;;;35.00;75.20;;;;;;5026504;28;20437;-68
2021/07/23 12:10:06;;;;;;;10.33;9.43;;;35.10;73.90;;;;;;5027606;28;20495;-67
2021/07/23 12:12:33;;;;;;;11.13;10.23;;;35.60;73.40;;;;;;5027909;28;20518;-68
2021/07/23 12:15:08;;;;;;;9.90;8.93;;;36.30;70.30;;;;;;5027628;28;20485;-68
2021/07/23 12:17:36;;;;;;;10.27;9.37;;;36.70;70.50;;;;;;5024708;28;20440;-68
2021/07/23 12:20:05;;;;;;;11.53;10.03;;;36.80;70.60;;;;;;5027425;28;20444;-68
2021/07/23 12:22:33;;;;;;;10.97;9.87;;;36.70;64.80;;;;;;5027618;28;20452;-67
2021/07/23 12:25:13;;;;;;;11.90;10.70;;;36.60;65.80;;;;;;5027666;28;20520;-68
2021/07/23 12:27:40;;;;;;;10.80;9.70;;;36.30;69.50;;;;;;5028224;28;20429;-68
2021/07/23 12:30:08;;;;;;;10.70;9.80;;;36.40;67.70;;;;;;5028103;28;20528;-69
2021/07/23 12:32:34;;;;;;;12.47;11.40;;;36.60;68.90;;;;;;5029203;28;20449;-68
2021/07/23 12:35:01;;;;;;;11.13;10.13;;;36.40;66.70;;;;;;5028094;28;20488;-69
2021/07/23 12:37:31;;;;;;;11.23;10.23;;;36.40;64.40;;;;;;5028903;28;20453;-68